createdAt,value
2018-03-23T00:00:36.056Z,4.70
2018-03-23T00:03:03.457Z,3.62
2018-03-23T00:05:30.957Z,4.18
2018-03-23T00:07:58.386Z,4.50
2018-03-23T00:10:25.857Z,3.22
2018-03-23T00:12:53.334Z,4.68
2018-03-23T00:15:20.756Z,3.65
2018-03-23T00:17:48.302Z,4.47
2018-03-23T00:20:15.753Z,5.07
2018-03-23T00:22:43.276Z,4.12
2018-03-23T00:25:10.659Z,4.53
2018-03-23T00:27:38.115Z,3.50
2018-03-23T00:30:05.549Z,5.57
2018-03-23T00:32:32.976Z,3.70
2018-03-23T00:35:00.407Z,3.25
2018-03-23T00:37:27.900Z,4.57
2018-03-23T00:39:56.098Z,3.35
2018-03-23T00:42:23.589Z,3.65
2018-03-23T00:44:51.161Z,4.95
2018-03-23T00:47:18.558Z,4.18
2018-03-23T00:49:46.004Z,3.60
2018-03-23T00:52:13.431Z,3.58
2018-03-23T00:54:40.860Z,4.68
2018-03-23T00:57:08.359Z,5.10
2018-03-23T00:59:35.912Z,4.45
2018-03-23T01:02:03.348Z,3.92
2018-03-23T01:04:30.842Z,4.32
2018-03-23T01:06:58.981Z,3.78
2018-03-23T01:09:26.551Z,3.62
2018-03-23T01:11:54.026Z,3.25
2018-03-23T01:14:21.446Z,5.43
2018-03-23T01:16:49.030Z,3.85
2018-03-23T01:19:16.449Z,2.92
2018-03-23T01:21:43.932Z,3.25
2018-03-23T01:24:11.353Z,4.25
2018-03-23T01:26:38.811Z,3.87
2018-03-23T01:29:06.273Z,4.07
2018-03-23T01:31:33.815Z,3.50
2018-03-23T01:34:01.257Z,3.60
2018-03-23T01:36:28.651Z,3.53
2018-03-23T01:38:56.068Z,2.95
2018-03-23T01:41:23.535Z,3.78
2018-03-23T01:43:50.973Z,3.72
2018-03-23T01:46:18.393Z,3.40
2018-03-23T01:48:45.782Z,3.83
2018-03-23T01:51:13.231Z,3.47
2018-03-23T01:53:43.480Z,4.35
2018-03-23T01:56:10.917Z,3.30
2018-03-23T01:58:38.396Z,3.87
2018-03-23T02:01:05.860Z,4.30
2018-03-23T02:03:33.292Z,3.55
2018-03-23T02:06:00.721Z,5.20
2018-03-23T02:08:28.138Z,4.93
2018-03-23T02:10:55.537Z,5.55
2018-03-23T02:13:23.453Z,5.15
2018-03-23T02:15:50.892Z,6.68
2018-03-23T02:18:18.271Z,5.22
2018-03-23T02:20:45.682Z,6.43
2018-03-23T02:23:13.160Z,5.70
2018-03-23T02:25:40.612Z,6.25
2018-03-23T02:28:08.037Z,4.90
2018-03-23T02:30:35.441Z,4.85
2018-03-23T02:33:02.983Z,4.35
2018-03-23T02:35:30.363Z,7.28
2018-03-23T02:37:57.801Z,6.43
2018-03-23T02:40:25.232Z,5.20
2018-03-23T02:42:53.245Z,4.07
2018-03-23T02:45:20.887Z,6.78
2018-03-23T02:47:48.291Z,4.95
2018-03-23T02:50:15.729Z,4.68
2018-03-23T02:52:43.144Z,4.45
2018-03-23T02:55:10.591Z,4.50
2018-03-23T02:57:38.124Z,5.35
2018-03-23T03:00:06.152Z,4.35
2018-03-23T03:02:33.592Z,4.55
2018-03-23T03:05:01.054Z,4.55
2018-03-23T03:07:28.498Z,5.30
2018-03-23T03:09:55.944Z,5.80
2018-03-23T03:12:23.341Z,4.05
2018-03-23T03:14:50.770Z,5.12
2018-03-23T03:17:18.257Z,4.62
2018-03-23T03:19:45.706Z,5.07
2018-03-23T03:22:13.137Z,5.95
2018-03-23T03:24:40.626Z,5.10
2018-03-23T03:27:08.054Z,6.00
2018-03-23T03:29:36.282Z,5.25
2018-03-23T03:32:03.690Z,5.75
2018-03-23T03:34:31.115Z,5.25
2018-03-23T03:36:58.515Z,5.85
2018-03-23T03:39:25.917Z,4.37
2018-03-23T03:41:53.422Z,5.22
2018-03-23T03:44:21.510Z,4.70
2018-03-23T03:46:49.392Z,3.85
2018-03-23T03:49:16.846Z,4.25
2018-03-23T03:51:44.302Z,3.60
2018-03-23T03:54:12.025Z,3.60
2018-03-23T03:56:39.490Z,4.15
2018-03-23T03:59:06.947Z,2.92
2018-03-23T04:01:34.453Z,4.05
2018-03-23T04:04:01.983Z,5.78
2018-03-23T04:06:29.406Z,3.70
2018-03-23T04:08:56.805Z,3.95
2018-03-23T04:11:24.598Z,4.35
2018-03-23T04:13:52.023Z,4.70
2018-03-23T04:16:19.428Z,4.20
2018-03-23T04:18:46.847Z,4.00
2018-03-23T04:21:14.408Z,4.18
2018-03-23T04:23:41.804Z,4.90
2018-03-23T04:26:09.189Z,4.65
2018-03-23T04:28:36.752Z,6.22
2018-03-23T04:31:04.189Z,4.85
2018-03-23T04:33:31.587Z,5.12
2018-03-23T04:35:59.069Z,3.90
2018-03-23T04:38:26.506Z,4.28
2018-03-23T04:40:54.046Z,5.70
2018-03-23T04:43:21.518Z,3.60
2018-03-23T04:45:49.503Z,4.22
2018-03-23T04:48:16.917Z,4.57
2018-03-23T04:50:44.358Z,5.70
2018-03-23T04:53:11.843Z,5.37
2018-03-23T04:55:39.723Z,4.32
2018-03-23T04:58:07.154Z,4.90
2018-03-23T05:00:35.109Z,5.60
2018-03-23T05:03:02.528Z,5.55
2018-03-23T05:05:29.957Z,5.50
2018-03-23T05:07:57.435Z,5.37
2018-03-23T05:10:24.866Z,5.55
2018-03-23T05:12:52.317Z,5.72
2018-03-23T05:15:19.741Z,4.43
2018-03-23T05:17:47.321Z,5.28
2018-03-23T05:20:14.733Z,5.80
2018-03-23T05:22:42.140Z,5.70
2018-03-23T05:25:09.716Z,5.07
2018-03-23T05:27:37.154Z,5.07
2018-03-23T05:30:04.590Z,4.47
2018-03-23T05:32:32.033Z,4.80
2018-03-23T05:34:59.882Z,5.25
2018-03-23T05:37:27.279Z,4.72
2018-03-23T05:39:54.717Z,5.45
2018-03-23T05:42:22.174Z,5.62
2018-03-23T05:44:49.606Z,5.57
2018-03-23T05:47:17.015Z,5.03
2018-03-23T05:49:44.480Z,4.18
2018-03-23T05:52:11.890Z,5.62
2018-03-23T05:54:39.354Z,4.78
2018-03-23T05:57:06.769Z,6.40
2018-03-23T05:59:34.314Z,6.25
2018-03-23T06:02:01.705Z,5.68
2018-03-23T06:04:29.206Z,5.70
2018-03-23T06:06:56.620Z,5.40
2018-03-23T06:09:24.060Z,6.50
2018-03-23T06:11:51.607Z,4.97
2018-03-23T06:14:19.058Z,6.20
2018-03-23T06:16:46.519Z,5.57
2018-03-23T06:19:13.915Z,5.18
2018-03-23T06:21:41.346Z,5.78
2018-03-23T06:24:08.787Z,6.00
2018-03-23T06:26:36.222Z,8.18
2018-03-23T06:29:03.636Z,6.05
2018-03-23T06:31:31.338Z,5.72
2018-03-23T06:33:58.913Z,7.55
2018-03-23T06:36:26.876Z,5.60
2018-03-23T06:38:54.338Z,8.57
2018-03-23T06:41:21.890Z,6.55
2018-03-23T06:43:49.332Z,5.57
2018-03-23T06:46:16.754Z,6.25
2018-03-23T06:48:44.180Z,5.75
2018-03-23T06:51:11.712Z,7.55
2018-03-23T06:53:39.168Z,7.07
2018-03-23T06:56:06.602Z,6.03
2018-03-23T06:58:34.069Z,7.28
2018-03-23T07:01:01.558Z,7.00
2018-03-23T07:03:29.075Z,7.72
2018-03-23T07:05:56.552Z,6.60
2018-03-23T07:08:24.008Z,7.82
2018-03-23T07:10:51.491Z,7.72
2018-03-23T07:13:18.959Z,6.90
2018-03-23T07:15:46.529Z,8.00
2018-03-23T07:18:14.006Z,7.60
2018-03-23T07:20:41.428Z,9.32
2018-03-23T07:23:08.819Z,6.68
2018-03-23T07:25:36.366Z,7.65
2018-03-23T07:28:03.813Z,9.27
2018-03-23T07:30:31.244Z,10.80
2018-03-23T07:32:58.686Z,7.90
2018-03-23T07:35:26.158Z,8.38
2018-03-23T07:37:53.604Z,15.27
2018-03-23T07:40:21.095Z,11.18
2018-03-23T07:42:48.599Z,7.32
2018-03-23T07:45:16.034Z,8.60
2018-03-23T07:47:43.493Z,7.55
2018-03-23T07:50:11.983Z,7.50
2018-03-23T07:52:39.447Z,7.53
2018-03-23T07:55:07.089Z,7.60
2018-03-23T07:57:34.685Z,6.78
2018-03-23T08:00:02.171Z,8.68
2018-03-23T08:02:29.615Z,6.25
2018-03-23T08:04:57.067Z,8.18
2018-03-23T08:07:24.663Z,8.65
2018-03-23T08:09:52.063Z,7.97
2018-03-23T08:12:19.512Z,6.85
2018-03-23T08:14:47.810Z,6.22
2018-03-23T08:17:15.436Z,4.97
2018-03-23T08:19:42.899Z,6.53
2018-03-23T08:22:10.332Z,4.35
2018-03-23T08:24:37.771Z,7.10
2018-03-23T08:27:05.425Z,5.50
2018-03-23T08:29:32.853Z,8.10
2018-03-23T08:32:00.345Z,5.03
2018-03-23T08:34:27.810Z,4.30
2018-03-23T08:36:55.336Z,3.78
2018-03-23T08:39:22.828Z,3.50
2018-03-23T08:41:50.600Z,5.00
2018-03-23T08:44:18.058Z,4.50
2018-03-23T08:46:45.535Z,6.00
2018-03-23T08:49:12.965Z,4.35
2018-03-23T08:51:40.420Z,4.80
2018-03-23T08:54:08.005Z,5.55
2018-03-23T08:56:35.482Z,3.80
2018-03-23T08:59:03.046Z,3.75
2018-03-23T09:01:30.510Z,4.72
2018-03-23T09:03:57.971Z,3.37
2018-03-23T09:06:25.405Z,3.67
2018-03-23T09:08:52.826Z,3.25
2018-03-23T09:11:20.286Z,4.75
2018-03-23T09:13:47.821Z,2.85
2018-03-23T09:16:15.240Z,3.30
2018-03-23T09:18:42.689Z,3.50
2018-03-23T09:21:10.129Z,3.47
2018-03-23T09:23:37.576Z,3.45
2018-03-23T09:26:04.986Z,2.85
2018-03-23T09:28:32.498Z,3.00
2018-03-23T09:30:59.961Z,3.87
2018-03-23T09:33:27.392Z,3.22
2018-03-23T09:35:55.392Z,3.10
2018-03-23T09:38:22.799Z,5.75
2018-03-23T09:40:50.260Z,3.20
2018-03-23T09:43:17.730Z,4.25
2018-03-23T09:45:45.231Z,4.65
2018-03-23T09:48:12.744Z,3.90
2018-03-23T09:50:40.165Z,4.35
2018-03-23T09:53:07.672Z,4.45
2018-03-23T09:55:35.060Z,5.10
2018-03-23T09:58:02.585Z,23.40
2018-03-23T10:00:30.006Z,4.60
2018-03-23T10:02:57.433Z,4.47
2018-03-23T10:05:24.986Z,4.65
2018-03-23T10:07:52.405Z,3.40
2018-03-23T10:10:19.836Z,4.20
2018-03-23T10:12:47.353Z,3.80
2018-03-23T10:15:14.749Z,3.95
2018-03-23T10:17:42.145Z,4.37
2018-03-23T10:20:09.602Z,3.90
2018-03-23T10:22:37.013Z,5.87
2018-03-23T10:25:04.448Z,3.45
2018-03-23T10:27:31.866Z,5.97
2018-03-23T10:29:59.445Z,3.83
2018-03-23T10:32:26.915Z,3.65
2018-03-23T10:34:54.449Z,5.25
2018-03-23T10:37:21.900Z,4.40
2018-03-23T10:39:50.085Z,3.90
2018-03-23T10:42:17.908Z,5.40
2018-03-23T10:44:45.401Z,4.43
2018-03-23T10:47:13.764Z,4.00
2018-03-23T10:49:41.155Z,4.80
2018-03-23T10:52:08.892Z,3.70
2018-03-23T10:54:36.438Z,4.00
2018-03-23T10:57:03.869Z,3.72
2018-03-23T10:59:36.815Z,3.78
2018-03-23T11:02:07.128Z,3.03
2018-03-23T11:04:34.520Z,2.62
2018-03-23T11:07:02.030Z,3.20
2018-03-23T11:09:29.604Z,4.60
2018-03-23T11:11:57.031Z,4.12
2018-03-23T11:14:24.495Z,4.05
2018-03-23T11:16:51.965Z,5.50
2018-03-23T11:19:19.389Z,2.95
2018-03-23T11:21:46.794Z,4.57
2018-03-23T11:24:14.224Z,4.47
2018-03-23T11:26:41.685Z,3.40
2018-03-23T11:29:09.547Z,3.70
2018-03-23T11:31:36.939Z,3.30
2018-03-23T11:34:04.381Z,4.32
2018-03-23T11:36:31.834Z,3.92
2018-03-23T11:38:59.400Z,5.07
2018-03-23T11:41:26.954Z,4.05
2018-03-23T11:43:54.416Z,4.35
2018-03-23T11:46:21.925Z,3.90
2018-03-23T11:48:49.352Z,4.00
2018-03-23T11:51:16.995Z,3.60
2018-03-23T11:53:44.488Z,4.20
2018-03-23T11:56:11.877Z,3.58
2018-03-23T11:58:39.340Z,4.50
2018-03-23T12:01:06.766Z,3.60
2018-03-23T12:03:34.180Z,3.22
2018-03-23T12:06:01.636Z,3.72
2018-03-23T12:08:29.108Z,5.20
2018-03-23T12:10:56.544Z,4.97
2018-03-23T12:13:24.233Z,4.03
2018-03-23T12:15:51.686Z,4.10
2018-03-23T12:18:19.109Z,3.78
2018-03-23T12:20:46.535Z,3.80
2018-03-23T12:23:13.996Z,4.22
2018-03-23T12:25:41.692Z,2.33
2018-03-23T12:28:09.241Z,4.45
2018-03-23T12:30:36.656Z,4.07
2018-03-23T12:33:04.129Z,3.30
2018-03-23T12:35:31.558Z,3.15
2018-03-23T12:37:59.217Z,4.53
2018-03-23T12:40:26.633Z,3.70
2018-03-23T12:42:54.105Z,3.58
2018-03-23T12:45:21.505Z,4.97
2018-03-23T12:47:48.944Z,3.87
2018-03-23T12:50:16.480Z,2.97
2018-03-23T12:52:43.941Z,4.40
2018-03-23T12:55:11.428Z,3.90
2018-03-23T12:57:38.887Z,4.32
2018-03-23T13:00:06.302Z,3.15
2018-03-23T13:02:33.699Z,3.42
2018-03-23T13:05:01.117Z,3.58
2018-03-23T13:07:28.731Z,5.30
2018-03-23T13:09:57.062Z,4.30
2018-03-23T13:12:24.715Z,5.37
2018-03-23T13:14:52.215Z,3.62
2018-03-23T13:17:19.615Z,4.40
2018-03-23T13:19:47.077Z,4.78
2018-03-23T13:22:14.611Z,3.80
2018-03-23T13:24:42.077Z,3.53
2018-03-23T13:27:09.557Z,3.28
2018-03-23T13:29:37.094Z,3.55
2018-03-23T13:32:04.567Z,5.80
2018-03-23T13:34:32.063Z,4.80
2018-03-23T13:36:59.521Z,4.95
2018-03-23T13:39:26.915Z,3.85
2018-03-23T13:41:54.607Z,4.12
2018-03-23T13:44:22.071Z,3.65
2018-03-23T13:46:49.534Z,3.53
2018-03-23T13:49:17.017Z,3.10
2018-03-23T13:51:44.454Z,3.45
2018-03-23T13:54:11.907Z,3.00
2018-03-23T13:56:39.543Z,3.15
2018-03-23T13:59:12.603Z,1.30
2018-03-23T14:01:41.023Z,2.10
2018-03-23T14:04:08.435Z,2.33
2018-03-23T14:06:36.088Z,2.03
2018-03-23T14:09:03.566Z,3.30
2018-03-23T14:11:31.170Z,2.35
2018-03-23T14:13:58.757Z,2.05
2018-03-23T14:16:26.305Z,1.98
2018-03-23T14:18:53.830Z,1.85
2018-03-23T14:21:21.326Z,2.65
2018-03-23T14:23:48.967Z,3.12
2018-03-23T14:26:16.450Z,2.08
2018-03-23T14:28:43.967Z,3.90
2018-03-23T14:31:11.330Z,1.42
2018-03-23T14:33:38.786Z,2.17
2018-03-23T14:36:06.260Z,1.50
2018-03-23T14:38:33.929Z,1.52
2018-03-23T14:41:01.366Z,2.40
2018-03-23T14:43:28.896Z,2.30
2018-03-23T14:45:56.798Z,2.95
2018-03-23T14:48:24.221Z,1.95
2018-03-23T14:50:51.771Z,2.45
2018-03-23T14:53:19.201Z,1.70
2018-03-23T14:55:46.667Z,1.80
2018-03-23T14:58:14.201Z,2.92
2018-03-23T15:00:41.753Z,1.60
2018-03-23T15:03:09.417Z,1.87
2018-03-23T15:05:36.963Z,2.08
2018-03-23T15:08:04.539Z,1.60
2018-03-23T15:10:32.134Z,2.22
2018-03-23T15:12:59.541Z,2.80
2018-03-23T15:15:27.007Z,1.83
2018-03-23T15:17:54.771Z,2.47
2018-03-23T15:20:22.181Z,1.30
2018-03-23T15:22:49.582Z,1.50
2018-03-23T15:25:17.134Z,0.80
2018-03-23T15:27:45.783Z,1.50
2018-03-23T15:30:13.282Z,3.05
2018-03-23T15:32:40.710Z,2.65
2018-03-23T15:35:08.997Z,0.98
2018-03-23T15:37:36.386Z,1.42
2018-03-23T15:40:03.846Z,2.05
2018-03-23T15:42:31.269Z,2.15
2018-03-23T15:44:58.760Z,1.20
2018-03-23T15:47:26.356Z,1.30
2018-03-23T15:49:53.972Z,1.33
2018-03-23T15:52:21.391Z,0.93
2018-03-23T15:54:48.898Z,1.25
2018-03-23T15:57:16.344Z,1.48
2018-03-23T15:59:43.767Z,4.30
2018-03-23T16:02:11.212Z,1.62
2018-03-23T16:04:38.671Z,1.60
2018-03-23T16:07:06.130Z,1.90
2018-03-23T16:09:33.522Z,1.27
2018-03-23T16:12:00.978Z,2.42
2018-03-23T16:14:28.565Z,2.08
2018-03-23T16:16:55.966Z,1.90
2018-03-23T16:19:23.385Z,1.58
2018-03-23T16:21:50.838Z,1.65
2018-03-23T16:24:18.378Z,2.08
2018-03-23T16:26:45.884Z,1.70
2018-03-23T16:29:13.401Z,2.15
2018-03-23T16:31:40.851Z,3.58
2018-03-23T16:34:08.969Z,2.47
2018-03-23T16:36:36.773Z,1.60
2018-03-23T16:39:04.258Z,1.60
2018-03-23T16:41:31.660Z,2.10
2018-03-23T16:43:59.146Z,1.92
2018-03-23T16:46:26.607Z,2.87
2018-03-23T16:48:54.014Z,1.95
2018-03-23T16:51:21.485Z,1.35
2018-03-23T16:53:48.953Z,3.47
2018-03-23T16:56:16.527Z,1.40
2018-03-23T16:58:43.933Z,2.15
2018-03-23T17:01:11.437Z,2.05
2018-03-23T17:03:38.898Z,2.30
2018-03-23T17:06:06.286Z,3.12
2018-03-23T17:08:33.829Z,2.87
2018-03-23T17:11:01.298Z,2.37
2018-03-23T17:13:28.746Z,2.53
2018-03-23T17:15:56.165Z,1.98
2018-03-23T17:18:23.716Z,3.30
2018-03-23T17:20:51.225Z,2.20
2018-03-23T17:23:18.649Z,1.35
2018-03-23T17:25:46.079Z,3.55
2018-03-23T17:28:13.522Z,2.42
2018-03-23T17:30:41.045Z,2.50
2018-03-23T17:33:08.439Z,1.75
2018-03-23T17:35:35.836Z,2.42
2018-03-23T17:38:03.289Z,2.00
2018-03-23T17:40:31.466Z,3.42
2018-03-23T17:42:58.917Z,2.55
2018-03-23T17:45:26.367Z,2.00
2018-03-23T17:47:53.898Z,2.70
2018-03-23T17:50:21.288Z,2.90
2018-03-23T17:52:48.907Z,2.67
2018-03-23T17:55:17.598Z,2.78
2018-03-23T17:57:44.997Z,2.97
2018-03-23T18:00:12.394Z,2.35
2018-03-23T18:02:39.833Z,2.90
2018-03-23T18:05:07.396Z,4.37
2018-03-23T18:07:34.870Z,4.35
2018-03-23T18:10:02.300Z,2.10
2018-03-23T18:12:29.764Z,1.87
2018-03-23T18:14:57.246Z,3.10
2018-03-23T18:17:24.716Z,2.25
2018-03-23T18:19:52.148Z,2.33
2018-03-23T18:22:19.822Z,2.78
2018-03-23T18:24:47.275Z,2.33
2018-03-23T18:27:14.671Z,2.95
2018-03-23T18:29:42.071Z,2.30
2018-03-23T18:32:09.636Z,2.35
2018-03-23T18:34:37.101Z,2.28
2018-03-23T18:37:04.573Z,2.37
2018-03-23T18:39:32.037Z,3.00
2018-03-23T18:41:59.471Z,2.95
2018-03-23T18:44:27.804Z,2.53
2018-03-23T18:46:55.543Z,2.67
2018-03-23T18:49:22.977Z,2.70
2018-03-23T18:51:50.470Z,2.45
2018-03-23T18:54:18.001Z,2.37
2018-03-23T18:56:45.564Z,3.50
2018-03-23T18:59:14.087Z,3.97
2018-03-23T19:01:41.517Z,3.37
2018-03-23T19:04:08.966Z,3.47
2018-03-23T19:06:36.481Z,3.67
2018-03-23T19:09:04.002Z,3.70
2018-03-23T19:11:31.451Z,2.90
2018-03-23T19:13:58.872Z,3.87
2018-03-23T19:16:26.819Z,3.70
2018-03-23T19:18:54.360Z,6.72
2018-03-23T19:21:21.887Z,5.10
2018-03-23T19:23:49.499Z,6.22
2018-03-23T19:26:16.993Z,5.43
2018-03-23T19:28:44.465Z,3.30
2018-03-23T19:31:11.866Z,3.55
2018-03-23T19:33:39.349Z,4.53
2018-03-23T19:36:06.835Z,4.12
2018-03-23T19:38:34.289Z,6.68
2018-03-23T19:41:01.750Z,7.45
2018-03-23T19:43:29.185Z,6.35
2018-03-23T19:45:56.630Z,6.28
2018-03-23T19:48:24.358Z,6.85
2018-03-23T19:50:51.956Z,5.35
2018-03-23T19:53:20.386Z,4.03
2018-03-23T19:55:47.800Z,3.78
2018-03-23T19:58:15.242Z,3.60
2018-03-23T20:00:42.699Z,3.28
2018-03-23T20:03:10.154Z,4.70
2018-03-23T20:05:37.610Z,3.67
2018-03-23T20:08:05.175Z,3.55
2018-03-23T20:10:32.630Z,4.85
2018-03-23T20:13:00.103Z,3.45
2018-03-23T20:15:27.581Z,3.70
2018-03-23T20:18:00.556Z,3.37
2018-03-23T20:20:33.616Z,2.90
2018-03-23T20:23:01.423Z,4.22
2018-03-23T20:25:28.971Z,4.68
2018-03-23T20:28:02.127Z,3.97
2018-03-23T20:30:29.690Z,4.57
2018-03-23T20:32:57.565Z,4.93
2018-03-23T20:35:25.137Z,4.03
2018-03-23T20:37:52.563Z,3.72
2018-03-23T20:40:20.024Z,3.12
2018-03-23T20:42:47.450Z,4.05
2018-03-23T20:45:14.828Z,3.15
2018-03-23T20:47:42.254Z,3.85
2018-03-23T20:50:09.734Z,4.60
2018-03-23T20:52:37.210Z,4.50
2018-03-23T20:55:04.704Z,4.00
2018-03-23T20:57:32.197Z,3.83
2018-03-23T21:00:00.054Z,5.00
2018-03-23T21:02:27.593Z,4.15
2018-03-23T21:04:55.010Z,3.40
2018-03-23T21:07:22.479Z,4.70
2018-03-23T21:09:49.860Z,4.50
2018-03-23T21:12:17.320Z,3.90
2018-03-23T21:14:44.715Z,3.65
2018-03-23T21:17:12.141Z,3.17
2018-03-23T21:19:39.624Z,4.35
2018-03-23T21:22:07.051Z,4.60
2018-03-23T21:24:34.737Z,3.20
2018-03-23T21:27:02.270Z,3.72
2018-03-23T21:29:29.693Z,5.05
2018-03-23T21:31:57.076Z,4.40
2018-03-23T21:34:24.549Z,4.70
2018-03-23T21:36:51.967Z,4.45
2018-03-23T21:39:19.718Z,4.40
2018-03-23T21:41:47.149Z,4.20
2018-03-23T21:44:14.618Z,4.10
2018-03-23T21:46:42.070Z,5.47
2018-03-23T21:49:09.507Z,5.05
2018-03-23T21:51:36.949Z,5.45
2018-03-23T21:54:04.352Z,6.40
2018-03-23T21:56:31.749Z,3.65
2018-03-23T21:58:59.397Z,5.75
2018-03-23T22:01:26.833Z,6.10
2018-03-23T22:03:54.312Z,6.50
2018-03-23T22:06:21.760Z,4.55
2018-03-23T22:08:49.634Z,5.37
2018-03-23T22:11:17.091Z,5.60
2018-03-23T22:13:44.541Z,5.78
2018-03-23T22:16:11.947Z,5.75
2018-03-23T22:18:39.369Z,5.53
2018-03-23T22:21:06.825Z,4.47
2018-03-23T22:23:34.294Z,5.28
2018-03-23T22:26:01.741Z,4.60
2018-03-23T22:28:29.193Z,5.40
2018-03-23T22:30:56.646Z,5.10
2018-03-23T22:33:24.114Z,6.15
2018-03-23T22:35:51.585Z,4.10
2018-03-23T22:38:18.973Z,4.68
2018-03-23T22:40:46.579Z,5.40
2018-03-23T22:43:13.992Z,6.20
2018-03-23T22:45:42.025Z,5.43
2018-03-23T22:48:09.440Z,5.40
2018-03-23T22:50:36.865Z,5.97
2018-03-23T22:53:04.284Z,5.47
2018-03-23T22:55:31.740Z,4.40
2018-03-23T22:57:59.353Z,5.37
2018-03-23T23:00:26.818Z,6.37
2018-03-23T23:02:54.548Z,4.05
2018-03-23T23:05:22.002Z,6.50
2018-03-23T23:07:49.433Z,6.15
2018-03-23T23:10:16.897Z,4.10
2018-03-23T23:12:44.317Z,6.60
2018-03-23T23:15:11.711Z,5.82
2018-03-23T23:17:39.116Z,6.03
2018-03-23T23:20:06.682Z,7.35
2018-03-23T23:22:34.178Z,8.95
2018-03-23T23:25:01.617Z,10.43
2018-03-23T23:27:29.072Z,7.15
2018-03-23T23:29:56.479Z,6.65
2018-03-23T23:32:23.932Z,6.00
2018-03-23T23:34:51.378Z,5.93
2018-03-23T23:37:18.970Z,6.62
2018-03-23T23:39:46.583Z,5.50
2018-03-23T23:42:14.053Z,6.00
2018-03-23T23:44:41.498Z,4.57
2018-03-23T23:47:09.506Z,5.82
2018-03-23T23:49:37.028Z,5.43
2018-03-23T23:52:04.931Z,7.07
2018-03-23T23:54:32.345Z,4.85
2018-03-23T23:56:59.800Z,4.82
2018-03-23T23:59:27.341Z,5.40
